This is the latest recevied weather packets stored in our database for station/object GW1495. If no packets are shown the sender has not sent any weather packets the latest 10 day(s).
| Time | Temp. | Humidity | Pressure | Rain* | Wind** | Luminosity | Snow |
|---|---|---|---|---|---|---|---|
| 1777913498 | 18.89° C | 61% | 1007.7 hPa | 0.25 mm | - | - | - |
| 1777911690 | 17.22° C | 69% | 1008.1 hPa | 0.25 mm | - | - | - |
| 1777911312 | 16.67° C | 67% | 1008.1 hPa | 0.25 mm | - | - | - |
| 1777910082 | 15.56° C | 79% | 1008.4 hPa | 0.25 mm | - | - | - |
| 1777908269 | 15.56° C | 70% | 1008.8 hPa | 0.25 mm | - | - | - |
| 1777907533 | 17.22° C | 69% | 1009.1 hPa | 0.25 mm | - | - | - |
| 1777906483 | 15.56° C | 72% | 1009.1 hPa | 0.25 mm | - | - | - |
| 1777903613 | 10° C | 86% | 1009.4 hPa | 0.25 mm | - | - | - |
| 1777902870 | 9.44° C | 87% | 1009.8 hPa | 0.25 mm | - | - | - |
| 1777902163 | 9.44° C | 87% | 1009.4 hPa | 0.25 mm | - | - | - |
| 1777898905 | 7.78° C | 83% | 1010.1 hPa | 0 mm | - | - | - |
| 1777896405 | 6.67° C | 86% | 1009.4 hPa | 0 mm | - | - | - |
| 1777895323 | 5.56° C | 90% | 1009.4 hPa | 0 mm | - | - | - |
| 1777892430 | 4.44° C | 92% | 1008.4 hPa | 0 mm | - | - | - |
| 1777888488 | 5° C | 91% | 1009.1 hPa | 0 mm | - | - | - |
| 1777888097 | 5° C | 91% | 1009.1 hPa | 0 mm | - | - | - |
| 1777885574 | 5° C | 91% | 1009.4 hPa | 0 mm | - | - | - |
| 1777884141 | 5° C | 90% | 1009.8 hPa | 0 mm | - | - | - |
| 1777882695 | 5° C | 90% | 1009.4 hPa | 0 mm | - | - | - |
| 1777882336 | 5° C | 89% | 1009.4 hPa | 0 mm | - | - | - |
| 1777880176 | 5.56° C | 88% | 1009.4 hPa | 0 mm | - | - | - |
| 1777873000 | 4.44° C | 89% | 1010.4 hPa | 0 mm | - | - | - |
| 1777868671 | 5.56° C | 85% | 1010.1 hPa | 0 mm | - | - | - |
| 1777867604 | 6.11° C | 84% | 1010.1 hPa | 0 mm | - | - | - |
| 1777865772 | 7.22° C | 81% | 1009.4 hPa | 0 mm | - | - | - |
* Rain since midnight (hover to see other rain measurements)
** Current wind speed in m/s (hover to see current wind gust speed)